Time;durP1;ratioP1;P1;durP2;ratioP2;P2;SDS_P1;SDS_P2;PMS_P1;PMS_P2;Temp;Humidity;BMP_temperature;BMP_pressure;BME280_temperature;BME280_humidity;BME280_pressure;Samples;Min_cycle;Max_cycle;Signal;HPM_P1;HPM_P2
2022/01/10 00:00:21;;;;;;;45.72;25.63;;;2.60;69.40;;;;;;5075853;28;20074;-22
2022/01/10 00:02:49;;;;;;;23.90;13.93;;;2.60;69.40;;;;;;5076330;28;20105;-22
2022/01/10 00:05:16;;;;;;;21.05;12.57;;;2.60;69.00;;;;;;5076304;28;20021;-22
2022/01/10 00:07:42;;;;;;;17.98;10.45;;;2.60;68.80;;;;;;5076257;28;20426;-22
2022/01/10 00:10:09;;;;;;;18.02;10.85;;;2.60;68.70;;;;;;5076127;28;20103;-22
2022/01/10 00:12:36;;;;;;;15.57;9.23;;;2.60;68.50;;;;;;5075619;28;20032;-22
2022/01/10 00:15:03;;;;;;;19.92;12.88;;;2.60;68.40;;;;;;5076115;28;20075;-22
2022/01/10 00:17:29;;;;;;;20.40;12.02;;;2.60;68.30;;;;;;5076061;28;20040;-21
2022/01/10 00:19:55;;;;;;;19.52;12.35;;;2.60;68.40;;;;;;5075711;28;20024;-21
2022/01/10 00:22:23;;;;;;;23.05;14.98;;;2.50;68.30;;;;;;5075482;28;20485;-21
2022/01/10 00:24:49;;;;;;;14.25;8.18;;;2.50;68.40;;;;;;5075517;28;20028;-21
2022/01/10 00:27:15;;;;;;;14.10;8.00;;;2.60;68.20;;;;;;5075794;28;20032;-21
2022/01/10 00:29:41;;;;;;;28.33;20.10;;;2.50;68.10;;;;;;5074615;28;20024;-20
2022/01/10 00:32:07;;;;;;;33.72;21.55;;;2.50;68.50;;;;;;5075669;28;20108;-21
2022/01/10 00:34:36;;;;;;;21.23;14.10;;;2.50;68.80;;;;;;5075246;28;20036;-21
2022/01/10 00:37:02;;;;;;;17.95;10.00;;;2.50;68.60;;;;;;5075410;28;20066;-21
2022/01/10 00:39:28;;;;;;;17.08;9.35;;;2.60;68.60;;;;;;5075471;28;20050;-21
2022/01/10 00:41:56;;;;;;;15.00;8.18;;;2.50;68.40;;;;;;5075296;28;20021;-21
2022/01/10 00:44:25;;;;;;;41.13;25.70;;;2.60;68.30;;;;;;5075039;28;20366;-21
2022/01/10 00:46:53;;;;;;;26.98;19.05;;;2.60;68.80;;;;;;5075142;28;20021;-21
2022/01/10 00:49:19;;;;;;;31.33;19.80;;;2.70;69.10;;;;;;5075169;28;20540;-21
2022/01/10 00:51:45;;;;;;;17.52;10.57;;;2.70;69.00;;;;;;5075060;28;20028;-21
2022/01/10 00:54:11;;;;;;;14.73;8.95;;;2.70;68.50;;;;;;5074729;28;20527;-21
2022/01/10 00:56:37;;;;;;;23.23;14.35;;;2.70;68.30;;;;;;5075025;28;20032;-21
2022/01/10 00:59:03;;;;;;;22.13;15.27;;;2.80;68.30;;;;;;5074966;28;20024;-21
2022/01/10 01:01:29;;;;;;;29.38;19.48;;;2.70;68.40;;;;;;5075174;28;20393;-21
2022/01/10 01:03:55;;;;;;;30.25;18.98;;;2.70;68.60;;;;;;5075352;28;20028;-22
2022/01/10 01:06:20;;;;;;;54.47;35.35;;;2.70;68.70;;;;;;5074988;28;20020;-21
2022/01/10 01:08:47;;;;;;;45.15;25.95;;;2.70;68.60;;;;;;5074729;28;20040;-22
2022/01/10 01:11:48;;;;;;;22.48;13.70;;;2.70;70.00;;;;;;5074864;28;20021;-20
2022/01/10 01:14:11;;;;;;;29.77;18.08;;;2.70;69.00;;;;;;5074506;28;20037;-21
2022/01/10 01:24:26;;;;;;;29.48;17.95;;;2.70;69.50;;;;;;5073586;28;20048;-21
2022/01/10 01:26:53;;;;;;;30.00;18.92;;;2.60;69.50;;;;;;5074439;28;20043;-24
2022/01/10 01:29:25;;;;;;;27.13;16.42;;;2.60;69.20;;;;;;5074388;28;20114;-21
2022/01/10 01:31:52;;;;;;;36.53;20.92;;;2.60;68.90;;;;;;5074319;28;20391;-21
2022/01/10 01:34:20;;;;;;;31.92;18.98;;;2.60;69.30;;;;;;5072810;28;20381;-21
2022/01/10 01:36:50;;;;;;;18.17;10.35;;;2.60;69.40;;;;;;5074322;28;20107;-21
2022/01/10 01:39:22;;;;;;;44.65;26.88;;;2.60;68.80;;;;;;5074348;28;20549;-21
2022/01/10 01:41:50;;;;;;;16.60;9.77;;;2.60;69.20;;;;;;5074209;28;20097;-21
2022/01/10 01:44:23;;;;;;;15.32;9.15;;;2.60;68.80;;;;;;5074160;28;20020;-21
2022/01/10 01:46:49;;;;;;;26.10;16.08;;;2.60;68.60;;;;;;5074266;28;20027;-21
2022/01/10 01:49:15;;;;;;;27.85;17.15;;;2.70;69.60;;;;;;5074210;28;20017;-21
2022/01/10 01:51:42;;;;;;;30.27;17.25;;;2.60;69.50;;;;;;5073928;28;20059;-21
2022/01/10 01:54:09;;;;;;;34.72;19.20;;;2.70;69.10;;;;;;5073689;28;20087;-21
2022/01/10 01:56:36;;;;;;;23.95;13.75;;;2.70;70.20;;;;;;5073700;28;20070;-21
2022/01/10 01:59:04;;;;;;;19.48;11.57;;;2.70;69.60;;;;;;5073022;28;20036;-21
2022/01/10 02:01:30;;;;;;;54.97;33.42;;;2.70;69.20;;;;;;5074059;28;20029;-21
2022/01/10 02:03:56;;;;;;;56.28;35.42;;;2.70;69.40;;;;;;5073667;28;20067;-21
2022/01/10 02:06:22;;;;;;;42.80;25.75;;;2.70;70.60;;;;;;5073425;28;20032;-21
2022/01/10 02:08:50;;;;;;;32.05;20.27;;;2.70;70.50;;;;;;5073591;28;20070;-21
2022/01/10 02:11:16;;;;;;;66.03;37.05;;;2.60;69.80;;;;;;5073939;28;20043;-21
2022/01/10 02:13:44;;;;;;;43.45;27.70;;;2.70;71.00;;;;;;5073489;28;20029;-21
2022/01/10 02:16:15;;;;;;;36.67;22.10;;;2.60;70.70;;;;;;5073513;28;20480;-21
2022/01/10 02:18:41;;;;;;;45.05;27.15;;;2.60;70.30;;;;;;5073851;28;20063;-21
2022/01/10 02:21:09;;;;;;;55.55;32.78;;;2.60;70.40;;;;;;5073417;28;20457;-21
2022/01/10 02:23:37;;;;;;;38.00;22.00;;;2.60;70.50;;;;;;5073400;28;20051;-21
2022/01/10 02:26:04;;;;;;;38.60;23.48;;;2.60;70.00;;;;;;5073310;28;20024;-20
2022/01/10 02:28:32;;;;;;;33.92;20.45;;;2.60;70.10;;;;;;5073139;28;20074;-21
2022/01/10 02:30:58;;;;;;;25.55;15.50;;;2.60;70.00;;;;;;5073900;28;20036;-21
2022/01/10 02:33:27;;;;;;;27.80;15.82;;;2.50;69.80;;;;;;5073225;28;20545;-21
2022/01/10 02:38:51;;;;;;;16.92;9.63;;;2.50;69.60;;;;;;5073347;28;20021;-21
2022/01/10 02:41:27;;;;;;;16.55;8.93;;;2.50;69.20;;;;;;5073498;28;20400;-21
2022/01/10 02:43:55;;;;;;;21.75;12.02;;;2.50;69.20;;;;;;5073211;28;20082;-21
2022/01/10 02:46:22;;;;;;;17.77;10.82;;;2.50;69.40;;;;;;5073218;28;20042;-21
2022/01/10 02:48:49;;;;;;;22.45;12.50;;;2.60;69.20;;;;;;5073416;28;20041;-21
2022/01/10 02:51:16;;;;;;;48.30;30.58;;;2.60;69.20;;;;;;5073066;28;20040;-21
2022/01/10 02:53:42;;;;;;;40.17;25.15;;;2.60;70.00;;;;;;5071463;28;20056;-21
2022/01/10 02:56:08;;;;;;;26.95;16.00;;;2.60;69.70;;;;;;5072967;28;20033;-21
2022/01/10 02:58:34;;;;;;;25.67;14.60;;;2.60;69.70;;;;;;5072825;28;20415;-23
2022/01/10 03:01:01;;;;;;;18.73;10.93;;;2.60;69.60;;;;;;5073323;28;20037;-21
2022/01/10 03:03:30;;;;;;;17.30;9.60;;;2.60;69.30;;;;;;5073601;28;20023;-22
2022/01/10 03:05:57;;;;;;;17.08;8.90;;;2.60;69.10;;;;;;5071781;28;20024;-22
2022/01/10 03:08:25;;;;;;;16.38;8.48;;;2.60;68.90;;;;;;5072788;28;20017;-22
2022/01/10 03:10:51;;;;;;;16.58;9.18;;;2.60;68.70;;;;;;5076830;28;20556;-21
2022/01/10 03:13:17;;;;;;;22.65;15.45;;;2.60;68.70;;;;;;5076897;28;20115;-21
2022/01/10 03:15:42;;;;;;;20.48;14.05;;;2.50;68.60;;;;;;5077123;28;20024;-21
2022/01/10 03:18:08;;;;;;;15.25;8.80;;;2.60;68.90;;;;;;5077235;28;20063;-22
2022/01/10 03:20:34;;;;;;;15.23;8.48;;;2.50;68.80;;;;;;5076688;28;20476;-22
2022/01/10 03:23:01;;;;;;;20.80;12.40;;;2.50;68.60;;;;;;5077102;28;20021;-21
2022/01/10 03:25:27;;;;;;;22.52;12.25;;;2.40;68.60;;;;;;5076663;28;20034;-22
2022/01/10 03:27:52;;;;;;;17.10;10.63;;;2.40;68.60;;;;;;5076715;28;20111;-22
2022/01/10 03:30:18;;;;;;;14.57;8.32;;;2.40;68.60;;;;;;5075329;28;20059;-21
2022/01/10 03:32:46;;;;;;;35.05;21.27;;;2.40;68.50;;;;;;5076539;28;20029;-21
2022/01/10 03:35:13;;;;;;;14.70;8.43;;;2.30;68.90;;;;;;5076873;28;20025;-22
2022/01/10 03:37:39;;;;;;;15.50;10.07;;;2.30;68.60;;;;;;5076818;28;20392;-22
2022/01/10 03:40:07;;;;;;;17.25;10.55;;;2.20;68.60;;;;;;5076433;28;20025;-21
2022/01/10 03:42:33;;;;;;;18.83;10.00;;;2.20;68.60;;;;;;5076210;28;20056;-21
2022/01/10 03:44:59;;;;;;;15.18;8.40;;;2.10;68.60;;;;;;5076646;28;20461;-22
2022/01/10 03:47:26;;;;;;;13.98;7.68;;;2.00;68.60;;;;;;5076558;28;20078;-21
2022/01/10 03:49:52;;;;;;;16.42;9.38;;;2.00;68.60;;;;;;5076605;28;20020;-22
2022/01/10 03:52:18;;;;;;;13.90;7.45;;;1.90;68.90;;;;;;5075788;28;20121;-22
2022/01/10 03:54:43;;;;;;;28.65;19.00;;;1.90;68.90;;;;;;5076078;28;20040;-22
2022/01/10 03:57:11;;;;;;;15.15;8.70;;;1.90;69.20;;;;;;5076476;28;20029;-21
2022/01/10 03:59:37;;;;;;;15.18;9.18;;;1.90;69.30;;;;;;5076137;28;20162;-21
2022/01/10 04:02:04;;;;;;;13.00;7.57;;;1.90;69.50;;;;;;5074840;28;20071;-21
2022/01/10 04:04:30;;;;;;;12.35;6.78;;;1.90;69.40;;;;;;5076163;28;20021;-22
2022/01/10 04:06:56;;;;;;;14.93;8.95;;;1.90;69.40;;;;;;5076300;28;20029;-21
2022/01/10 04:09:22;;;;;;;16.33;9.18;;;1.90;69.40;;;;;;5076133;28;20112;-22
2022/01/10 04:11:49;;;;;;;14.73;8.88;;;1.90;69.30;;;;;;5076224;28;20070;-21
2022/01/10 04:14:15;;;;;;;13.93;7.93;;;1.90;69.60;;;;;;5074373;28;20036;-22
2022/01/10 04:16:41;;;;;;;13.90;7.70;;;1.90;69.40;;;;;;5075744;28;20024;-21
2022/01/10 04:19:07;;;;;;;17.92;10.55;;;1.90;69.30;;;;;;5074566;28;20043;-21
2022/01/10 04:21:33;;;;;;;36.85;21.90;;;1.90;69.50;;;;;;5075293;28;20024;-21
2022/01/10 04:23:59;;;;;;;31.42;18.63;;;1.90;70.00;;;;;;5075694;28;20381;-21
2022/01/10 04:26:25;;;;;;;27.92;16.90;;;1.90;69.60;;;;;;5075291;28;20025;-22
2022/01/10 04:28:53;;;;;;;16.42;9.70;;;1.90;69.80;;;;;;5076096;28;20063;-21
2022/01/10 04:31:19;;;;;;;16.45;9.40;;;1.90;69.50;;;;;;5075528;28;20104;-22
2022/01/10 04:33:45;;;;;;;17.10;9.70;;;1.90;69.10;;;;;;5075412;28;20029;-21
2022/01/10 04:36:11;;;;;;;30.13;18.27;;;1.90;69.10;;;;;;5075795;28;20031;-22
2022/01/10 04:38:37;;;;;;;19.15;11.38;;;1.90;69.40;;;;;;5075707;28;20031;-22
2022/01/10 04:41:04;;;;;;;20.90;14.35;;;1.90;69.50;;;;;;5074023;28;20028;-21
2022/01/10 04:43:30;;;;;;;22.90;14.15;;;1.90;69.70;;;;;;5075363;28;20031;-22
2022/01/10 04:45:56;;;;;;;16.05;9.93;;;1.80;70.20;;;;;;5075591;28;20062;-22
2022/01/10 04:48:22;;;;;;;15.65;8.98;;;1.80;69.70;;;;;;5075379;28;20106;-21
2022/01/10 04:53:33;;;;;;;20.63;14.18;;;1.70;69.50;;;;;;5075071;28;20051;-21
2022/01/10 04:55:59;;;;;;;18.15;10.52;;;1.70;69.80;;;;;;5075014;28;20082;-21
2022/01/10 04:58:25;;;;;;;18.50;9.75;;;1.70;69.50;;;;;;5074804;28;20028;-21
2022/01/10 05:00:53;;;;;;;14.35;7.55;;;1.70;69.60;;;;;;5075021;28;20025;-21
2022/01/10 05:03:20;;;;;;;13.00;6.90;;;1.70;69.70;;;;;;5075004;28;20492;-21
2022/01/10 05:05:48;;;;;;;16.75;10.30;;;1.70;69.50;;;;;;5074910;28;20081;-21
2022/01/10 05:08:14;;;;;;;13.57;7.63;;;1.70;69.50;;;;;;5074662;28;20107;-22
2022/01/10 05:10:42;;;;;;;19.83;10.45;;;1.80;69.40;;;;;;5074703;28;20059;-22
2022/01/10 05:13:08;;;;;;;31.60;19.05;;;1.80;69.30;;;;;;5074691;28;20028;-22
2022/01/10 05:15:34;;;;;;;24.75;13.90;;;1.80;69.40;;;;;;5074832;28;20365;-21
2022/01/10 05:18:00;;;;;;;18.95;10.52;;;1.80;69.30;;;;;;5074704;28;20031;-21
2022/01/10 05:20:26;;;;;;;22.08;12.82;;;1.80;69.30;;;;;;5075053;28;20029;-21
2022/01/10 05:22:52;;;;;;;23.88;13.70;;;1.80;69.50;;;;;;5074781;28;20028;-21
2022/01/10 05:25:18;;;;;;;12.45;6.70;;;1.70;69.50;;;;;;5074413;28;20029;-21
2022/01/10 05:27:44;;;;;;;28.25;16.75;;;1.70;69.30;;;;;;5074442;28;20032;-21
2022/01/10 05:30:10;;;;;;;26.23;14.77;;;1.70;69.10;;;;;;5074383;28;20439;-22
2022/01/10 05:32:36;;;;;;;21.33;12.02;;;1.70;69.90;;;;;;5073318;28;20477;-21
2022/01/10 05:35:04;;;;;;;20.33;12.32;;;1.70;69.50;;;;;;5073173;28;20043;-22
2022/01/10 05:37:30;;;;;;;36.83;20.90;;;1.70;69.80;;;;;;5074292;28;20037;-21
2022/01/10 05:39:56;;;;;;;16.17;9.07;;;1.60;69.80;;;;;;5074366;28;20044;-21
2022/01/10 05:42:22;;;;;;;15.57;9.18;;;1.60;69.80;;;;;;5075012;28;20032;-21
2022/01/10 05:44:48;;;;;;;11.88;6.93;;;1.60;69.90;;;;;;5074362;28;20507;-22
2022/01/10 05:47:14;;;;;;;11.50;6.30;;;1.60;69.60;;;;;;5074012;28;20028;-21
2022/01/10 05:49:47;;;;;;;10.60;6.40;;;1.60;69.50;;;;;;5073973;28;20546;-21
2022/01/10 05:52:14;;;;;;;30.05;16.70;;;1.50;69.40;;;;;;5073555;28;20027;-22
2022/01/10 05:54:40;;;;;;;40.38;25.15;;;1.60;69.70;;;;;;5073817;28;20044;-21
2022/01/10 05:57:06;;;;;;;41.70;24.38;;;1.50;70.80;;;;;;5073872;28;20052;-22
2022/01/10 05:59:33;;;;;;;29.95;19.05;;;1.50;71.20;;;;;;5073809;28;20056;-21
2022/01/10 06:01:59;;;;;;;49.80;29.20;;;1.50;71.30;;;;;;5074008;28;20024;-21
2022/01/10 06:04:25;;;;;;;47.20;28.83;;;1.50;72.00;;;;;;5073602;28;20021;-22
2022/01/10 06:06:51;;;;;;;47.10;29.23;;;1.50;72.20;;;;;;5073680;28;20615;-21
2022/01/10 06:09:17;;;;;;;31.10;19.25;;;1.50;72.60;;;;;;5073930;28;20027;-21
2022/01/10 06:11:43;;;;;;;35.53;22.05;;;1.50;71.70;;;;;;5073523;28;20388;-21
2022/01/10 06:14:09;;;;;;;25.08;14.70;;;1.50;71.30;;;;;;5073465;28;20021;-22
2022/01/10 06:16:36;;;;;;;25.38;15.65;;;1.50;71.10;;;;;;5073875;28;20024;-21
2022/01/10 06:19:02;;;;;;;38.28;23.15;;;1.50;70.80;;;;;;5073766;28;20055;-21
2022/01/10 06:21:28;;;;;;;24.48;14.57;;;1.40;71.00;;;;;;5073462;28;20028;-21
2022/01/10 06:23:54;;;;;;;29.00;18.60;;;1.40;70.80;;;;;;5073425;28;20020;-21
2022/01/10 06:26:20;;;;;;;40.58;25.23;;;1.40;70.60;;;;;;5073100;28;20021;-21
2022/01/10 06:28:46;;;;;;;24.35;14.48;;;1.40;70.60;;;;;;5073885;28;20020;-21
2022/01/10 06:31:13;;;;;;;36.10;21.10;;;1.30;71.20;;;;;;5073363;28;20385;-21
2022/01/10 06:33:40;;;;;;;29.13;18.00;;;1.30;71.00;;;;;;5073579;28;20033;-21
2022/01/10 06:36:08;;;;;;;28.30;17.20;;;1.20;71.00;;;;;;5072043;28;20024;-22
2022/01/10 06:38:36;;;;;;;30.50;19.27;;;1.20;71.20;;;;;;5073026;28;20075;-21
2022/01/10 06:41:02;;;;;;;25.20;16.00;;;1.20;71.20;;;;;;5073553;28;20067;-22
2022/01/10 06:43:28;;;;;;;31.30;19.10;;;1.10;71.30;;;;;;5071970;28;20496;-21
2022/01/10 06:45:54;;;;;;;26.35;15.63;;;1.10;71.60;;;;;;5072874;28;20025;-21
2022/01/10 06:48:20;;;;;;;26.95;13.93;;;1.10;71.50;;;;;;5072995;28;20028;-21
2022/01/10 06:50:48;;;;;;;23.95;15.82;;;1.00;71.30;;;;;;5072974;28;20024;-21
2022/01/10 06:53:18;;;;;;;24.83;13.05;;;1.00;71.10;;;;;;5072982;28;20037;-21
2022/01/10 06:55:45;;;;;;;23.95;11.90;;;1.00;71.00;;;;;;5073272;28;20139;-22
2022/01/10 06:58:11;;;;;;;12.70;6.68;;;1.00;71.10;;;;;;5073645;28;20519;-21
2022/01/10 07:00:37;;;;;;;14.40;8.27;;;1.00;70.90;;;;;;5072532;28;20055;-21
2022/01/10 07:03:03;;;;;;;11.70;7.22;;;1.00;70.80;;;;;;5073018;28;20119;-21
2022/01/10 07:05:30;;;;;;;24.98;13.48;;;1.00;70.70;;;;;;5073028;28;20052;-21
2022/01/10 07:07:55;;;;;;;10.45;6.15;;;1.00;70.70;;;;;;5072942;28;20036;-22
2022/01/10 07:10:22;;;;;;;18.23;10.57;;;1.00;70.60;;;;;;5071391;28;20020;-21
2022/01/10 07:12:48;;;;;;;23.83;14.95;;;1.00;71.00;;;;;;5072393;28;20534;-21
2022/01/10 07:15:15;;;;;;;21.23;12.02;;;1.00;70.90;;;;;;5073098;28;20484;-21
2022/01/10 07:17:41;;;;;;;11.95;6.63;;;1.10;70.60;;;;;;5072869;28;20396;-21
2022/01/10 07:20:07;;;;;;;16.30;8.75;;;1.10;70.50;;;;;;5073116;28;20025;-21
2022/01/10 07:22:33;;;;;;;25.92;15.15;;;1.10;70.30;;;;;;5071358;28;20032;-21
2022/01/10 07:24:59;;;;;;;22.85;13.30;;;1.10;70.50;;;;;;5072999;28;20020;-21
2022/01/10 07:27:25;;;;;;;30.08;17.55;;;1.10;70.30;;;;;;5072745;28;20025;-21
2022/01/10 07:29:51;;;;;;;31.90;17.52;;;1.10;70.40;;;;;;5073236;28;20116;-21
2022/01/10 07:32:18;;;;;;;24.30;13.73;;;1.10;70.70;;;;;;5072836;28;20480;-21
2022/01/10 07:34:44;;;;;;;23.80;13.90;;;1.10;70.60;;;;;;5072609;28;20038;-21
2022/01/10 07:37:10;;;;;;;22.00;9.70;;;1.10;70.40;;;;;;5073184;28;20036;-21
2022/01/10 07:39:37;;;;;;;19.75;10.35;;;1.10;70.40;;;;;;5072586;28;20399;-22
2022/01/10 07:42:03;;;;;;;15.60;8.25;;;1.10;70.40;;;;;;5072610;28;20078;-21
2022/01/10 07:44:29;;;;;;;24.33;14.38;;;1.10;70.50;;;;;;5072388;28;20056;-21
2022/01/10 07:46:55;;;;;;;15.95;8.50;;;1.10;70.50;;;;;;5073029;28;20047;-21
2022/01/10 07:49:21;;;;;;;10.90;5.57;;;1.10;70.30;;;;;;5071365;28;20021;-21
2022/01/10 07:51:48;;;;;;;9.60;5.30;;;1.10;70.10;;;;;;5072612;28;20074;-21
2022/01/10 07:54:14;;;;;;;8.07;4.75;;;1.10;69.90;;;;;;5070940;28;20087;-21
2022/01/10 07:56:40;;;;;;;9.82;4.80;;;1.10;69.90;;;;;;5074024;28;20052;-21
2022/01/10 07:59:06;;;;;;;13.80;8.65;;;1.00;69.80;;;;;;5076567;28;20039;-21
2022/01/10 08:01:31;;;;;;;13.82;7.90;;;1.00;69.80;;;;;;5076093;28;20564;-21
2022/01/10 08:03:57;;;;;;;14.05;8.52;;;1.10;69.90;;;;;;5076317;28;20112;-21
2022/01/10 08:06:24;;;;;;;11.20;6.28;;;1.00;70.00;;;;;;5075712;28;20039;-21
2022/01/10 08:08:50;;;;;;;7.93;4.47;;;1.10;69.90;;;;;;5076275;28;20142;-21
2022/01/10 08:11:16;;;;;;;10.07;5.80;;;1.10;69.90;;;;;;5074767;28;20039;-21
2022/01/10 08:13:43;;;;;;;17.23;10.63;;;1.10;70.10;;;;;;5075748;28;20557;-21
2022/01/10 08:16:10;;;;;;;11.48;6.18;;;1.20;69.90;;;;;;5074640;28;20025;-21
2022/01/10 08:18:36;;;;;;;11.55;5.47;;;1.20;69.70;;;;;;5075683;28;20036;-21
2022/01/10 08:21:05;;;;;;;18.50;10.05;;;1.30;69.70;;;;;;5076042;28;20029;-21
2022/01/10 08:23:31;;;;;;;23.98;14.15;;;1.30;69.50;;;;;;5076103;28;20020;-21
2022/01/10 08:25:57;;;;;;;19.30;11.57;;;1.30;69.60;;;;;;5075827;28;20024;-21
2022/01/10 08:28:23;;;;;;;29.13;16.70;;;1.30;69.60;;;;;;5075470;28;20036;-21
2022/01/10 08:30:50;;;;;;;11.45;6.03;;;1.30;69.60;;;;;;5075928;28;20048;-21
2022/01/10 08:33:16;;;;;;;28.33;15.60;;;1.40;69.50;;;;;;5075470;28;20115;-21
2022/01/10 08:35:42;;;;;;;28.95;16.75;;;1.30;70.50;;;;;;5075847;28;20111;-21
2022/01/10 08:38:07;;;;;;;17.10;11.02;;;1.30;70.40;;;;;;5076078;28;20021;-21
2022/01/10 08:40:33;;;;;;;38.65;22.67;;;1.30;70.60;;;;;;5075201;28;20024;-21
2022/01/10 08:43:06;;;;;;;27.35;15.32;;;1.40;71.90;;;;;;5075822;28;20021;-21
2022/01/10 08:45:33;;;;;;;46.80;25.60;;;1.40;71.40;;;;;;5075639;28;20029;-21
2022/01/10 08:47:59;;;;;;;40.67;21.55;;;1.40;72.00;;;;;;5075607;28;20031;-21
2022/01/10 08:50:26;;;;;;;25.50;13.27;;;1.40;71.60;;;;;;5075075;28;20029;-22
2022/01/10 08:52:52;;;;;;;27.25;15.05;;;1.40;71.10;;;;;;5075318;28;20036;-21
2022/01/10 08:55:18;;;;;;;41.25;24.63;;;1.50;71.00;;;;;;5075034;28;20055;-21
2022/01/10 08:57:45;;;;;;;28.05;17.15;;;1.60;71.50;;;;;;5075068;28;20040;-21
2022/01/10 09:00:11;;;;;;;41.47;25.17;;;1.70;71.00;;;;;;5075044;28;20052;-21
2022/01/10 09:02:37;;;;;;;32.83;18.27;;;1.80;71.10;;;;;;5075289;28;20021;-21
2022/01/10 09:05:04;;;;;;;33.78;20.95;;;1.90;71.30;;;;;;5074954;28;20534;-21
2022/01/10 09:07:30;;;;;;;33.70;20.10;;;2.00;71.30;;;;;;5074673;28;20040;-21
2022/01/10 09:09:57;;;;;;;35.25;21.35;;;2.20;71.00;;;;;;5074375;28;20021;-21
2022/01/10 09:12:23;;;;;;;20.92;12.23;;;2.30;70.30;;;;;;5074494;28;20423;-21
2022/01/10 09:14:49;;;;;;;33.03;19.35;;;2.40;70.00;;;;;;5074972;28;20017;-21
2022/01/10 09:17:15;;;;;;;35.90;21.55;;;2.50;69.90;;;;;;5074703;28;20032;-21
2022/01/10 09:19:41;;;;;;;31.27;18.23;;;2.60;69.80;;;;;;5074716;28;20032;-21
2022/01/10 09:22:07;;;;;;;19.88;12.23;;;2.80;69.70;;;;;;5074832;28;20029;-21
2022/01/10 09:24:33;;;;;;;22.35;14.48;;;2.90;69.40;;;;;;5074246;28;20111;-21
2022/01/10 09:26:59;;;;;;;27.35;17.38;;;3.00;69.30;;;;;;5074548;28;20405;-22
2022/01/10 09:29:25;;;;;;;15.93;9.73;;;3.10;69.10;;;;;;5074386;28;20025;-21
2022/01/10 09:31:52;;;;;;;31.88;21.25;;;3.30;68.70;;;;;;5074716;28;20029;-21
2022/01/10 09:34:18;;;;;;;24.90;15.65;;;3.40;68.00;;;;;;5074035;28;20020;-22
2022/01/10 09:36:44;;;;;;;28.08;17.65;;;3.60;67.90;;;;;;5074309;28;20032;-22
2022/01/10 09:39:13;;;;;;;22.17;12.65;;;3.70;67.80;;;;;;5074248;28;20040;-22
2022/01/10 09:41:39;;;;;;;32.70;18.13;;;3.90;67.80;;;;;;5074371;28;20036;-21
2022/01/10 09:44:06;;;;;;;16.60;9.63;;;4.00;67.50;;;;;;5074140;28;20500;-21
2022/01/10 09:46:34;;;;;;;25.05;14.30;;;4.10;67.20;;;;;;5074215;28;20050;-22
2022/01/10 09:49:02;;;;;;;22.17;13.93;;;4.20;67.20;;;;;;5074412;28;20032;-21
2022/01/10 09:51:29;;;;;;;16.50;10.52;;;4.40;67.00;;;;;;5074320;28;20031;-22
2022/01/10 09:53:57;;;;;;;16.48;10.45;;;4.50;66.80;;;;;;5073778;28;20040;-21
2022/01/10 09:56:25;;;;;;;14.48;9.80;;;4.70;66.30;;;;;;5073649;28;20021;-22
2022/01/10 09:58:53;;;;;;;16.70;10.70;;;4.80;66.50;;;;;;5074171;28;20028;-22
2022/01/10 10:01:19;;;;;;;22.70;13.30;;;4.90;66.40;;;;;;5073818;28;20081;-22
2022/01/10 10:03:49;;;;;;;16.52;11.63;;;5.10;66.40;;;;;;5073787;28;20481;-22
2022/01/10 10:06:17;;;;;;;12.98;7.97;;;5.20;66.20;;;;;;5073825;28;20075;-21
2022/01/10 10:08:43;;;;;;;19.67;10.82;;;5.40;66.10;;;;;;5073696;28;20064;-22
2022/01/10 10:11:10;;;;;;;10.75;6.22;;;5.50;65.70;;;;;;5073668;28;20107;-22
2022/01/10 10:13:53;;;;;;;12.90;7.78;;;5.70;65.60;;;;;;5073561;28;20442;-22
2022/01/10 10:16:19;;;;;;;19.83;12.98;;;5.90;65.30;;;;;;5073687;28;20032;-22
2022/01/10 10:18:47;;;;;;;13.48;9.07;;;6.10;65.10;;;;;;5073286;28;20028;-22
2022/01/10 10:21:16;;;;;;;15.90;10.07;;;6.30;64.40;;;;;;5073464;28;20441;-22
2022/01/10 10:23:46;;;;;;;12.32;6.53;;;6.40;63.80;;;;;;5073469;28;20020;-22
2022/01/10 10:26:21;;;;;;;12.63;6.60;;;6.60;63.80;;;;;;5073160;28;20029;-25
2022/01/10 10:28:49;;;;;;;16.48;10.43;;;6.80;63.60;;;;;;5073769;28;20024;-22
2022/01/10 10:31:31;;;;;;;12.43;7.25;;;6.90;63.30;;;;;;5073359;28;20066;-22
2022/01/10 10:34:01;;;;;;;37.05;23.88;;;7.00;63.10;;;;;;5073601;28;20074;-22
2022/01/10 10:36:31;;;;;;;29.40;17.65;;;7.10;62.90;;;;;;5073388;28;20021;-22
2022/01/10 10:38:58;;;;;;;18.67;11.30;;;7.10;62.50;;;;;;5073219;28;20024;-22
2022/01/10 10:41:25;;;;;;;27.58;16.20;;;7.10;62.60;;;;;;5073455;28;20031;-22
2022/01/10 10:43:51;;;;;;;17.73;11.98;;;7.20;61.40;;;;;;5073252;28;20025;-22
2022/01/10 10:46:18;;;;;;;38.58;21.35;;;7.20;62.10;;;;;;5073271;28;20029;-23
2022/01/10 10:48:52;;;;;;;32.88;17.27;;;7.10;61.90;;;;;;5073153;28;20035;-22
2022/01/10 10:51:19;;;;;;;;;;;7.20;61.90;;;;;;5073868;28;20103;-22
2022/01/10 10:53:46;;;;;;;15.68;8.65;;;7.10;61.90;;;;;;5072970;28;19916;-22
2022/01/10 10:56:12;;;;;;;21.60;13.00;;;7.10;62.30;;;;;;5073071;28;20125;-22
2022/01/10 10:58:42;;;;;;;19.20;12.05;;;7.20;62.40;;;;;;5073367;28;20459;-22
2022/01/10 11:01:08;;;;;;;20.50;13.57;;;7.20;62.50;;;;;;5073331;28;20028;-22
2022/01/10 11:03:34;;;;;;;16.48;8.90;;;7.20;62.00;;;;;;5073303;28;20507;-22
2022/01/10 11:06:03;;;;;;;28.13;17.30;;;7.30;62.20;;;;;;5073315;28;20040;-22
2022/01/10 11:08:34;;;;;;;15.13;8.55;;;7.30;62.30;;;;;;5073560;28;20123;-23
2022/01/10 11:11:01;;;;;;;20.23;12.88;;;7.40;62.40;;;;;;5073138;28;20025;-21
2022/01/10 11:13:29;;;;;;;25.73;17.80;;;7.40;62.30;;;;;;5073394;28;20043;-21
2022/01/10 11:15:59;;;;;;;37.67;24.02;;;7.50;61.90;;;;;;5071690;28;20028;-21
2022/01/10 11:18:25;;;;;;;29.40;16.88;;;7.60;61.40;;;;;;5073081;28;20028;-20
2022/01/10 11:20:55;;;;;;;25.98;16.40;;;7.60;61.20;;;;;;5073660;28;20024;-21
2022/01/10 11:23:23;;;;;;;25.17;16.05;;;7.70;61.70;;;;;;5073135;28;20039;-20
2022/01/10 11:25:49;;;;;;;19.95;12.55;;;7.80;61.50;;;;;;5072975;28;20024;-21
2022/01/10 11:28:26;;;;;;;42.40;26.92;;;7.80;61.70;;;;;;5072874;28;20039;-21
2022/01/10 11:31:03;;;;;;;30.10;18.77;;;7.90;61.50;;;;;;5074825;28;20024;-21
2022/01/10 11:33:36;;;;;;;17.45;11.18;;;7.90;61.70;;;;;;5077214;28;20455;-20
2022/01/10 11:36:08;;;;;;;28.10;16.90;;;8.10;61.80;;;;;;5076721;28;20089;-21
2022/01/10 11:38:38;;;;;;;43.28;29.98;;;8.20;61.70;;;;;;5076346;28;20267;-21
2022/01/10 11:41:16;;;;;;;41.50;27.45;;;8.30;60.90;;;;;;5076742;28;20093;-21
2022/01/10 11:44:03;;;;;;;31.85;22.42;;;8.40;60.20;;;;;;5077662;28;20038;-21
2022/01/10 11:46:43;;;;;;;23.73;16.45;;;8.40;60.40;;;;;;5076293;28;20024;-21
2022/01/10 11:49:09;;;;;;;26.90;18.25;;;8.60;60.80;;;;;;5076434;28;20078;-22
2022/01/10 11:51:51;;;;;;;32.03;20.23;;;8.70;60.40;;;;;;5076255;28;20033;-23
2022/01/10 11:54:22;;;;;;;20.50;12.52;;;8.80;59.70;;;;;;5075984;28;20049;-21
2022/01/10 11:56:51;;;;;;;18.55;12.02;;;8.90;60.10;;;;;;5076830;28;20020;-21
2022/01/10 11:59:32;;;;;;;21.10;13.95;;;9.10;60.30;;;;;;5076180;28;20408;-22
2022/01/10 12:02:04;;;;;;;19.95;12.98;;;9.20;60.30;;;;;;5075199;28;20086;-22
2022/01/10 12:04:33;;;;;;;31.23;21.13;;;9.50;59.70;;;;;;5076139;28;20025;-21
2022/01/10 12:07:01;;;;;;;26.83;17.83;;;9.80;58.20;;;;;;5076367;28;20415;-21
2022/01/10 12:09:28;;;;;;;33.72;22.30;;;10.00;57.10;;;;;;5076073;28;20110;-22
2022/01/10 12:11:57;;;;;;;33.13;22.75;;;10.40;56.10;;;;;;5075890;28;20024;-22
2022/01/10 12:14:23;;;;;;;25.50;16.73;;;10.80;54.90;;;;;;5075609;28;20032;-22
2022/01/10 12:16:50;;;;;;;26.35;19.08;;;11.10;54.10;;;;;;5076797;28;20020;-21
2022/01/10 12:19:17;;;;;;;25.88;18.83;;;11.40;54.30;;;;;;5076153;28;20056;-22
2022/01/10 12:21:44;;;;;;;31.20;20.95;;;11.70;53.50;;;;;;5076095;28;20078;-22
2022/01/10 12:24:11;;;;;;;28.80;18.33;;;11.90;52.70;;;;;;5075832;28;20476;-22
2022/01/10 12:26:38;;;;;;;33.13;21.30;;;12.20;52.70;;;;;;5074371;28;20067;-21
2022/01/10 12:29:06;;;;;;;28.85;20.27;;;12.40;52.10;;;;;;5074450;28;20029;-22
2022/01/10 12:31:35;;;;;;;24.15;17.70;;;12.50;51.20;;;;;;5075941;28;20105;-21
2022/01/10 12:34:03;;;;;;;27.63;19.17;;;12.70;51.00;;;;;;5075789;28;20142;-22
2022/01/10 12:36:31;;;;;;;24.05;16.48;;;12.80;51.40;;;;;;5075442;28;20028;-21
2022/01/10 12:39:01;;;;;;;23.50;14.88;;;12.90;51.20;;;;;;5075455;28;20481;-22
2022/01/10 12:41:28;;;;;;;22.70;14.68;;;13.00;49.80;;;;;;5075540;28;20029;-21
2022/01/10 12:43:55;;;;;;;18.75;13.77;;;13.20;49.20;;;;;;5075264;28;20031;-21
2022/01/10 12:46:22;;;;;;;18.42;13.05;;;13.40;48.10;;;;;;5075144;28;20025;-22
2022/01/10 12:48:50;;;;;;;20.08;13.95;;;13.40;47.70;;;;;;5075603;28;20024;-22
2022/01/10 12:51:21;;;;;;;15.55;9.82;;;13.50;47.70;;;;;;5075275;28;20029;-22